sensor_id;sensor_type;location;lat;lon;timestamp;pressure;altitude;pressure_sealevel;temperature;humidity
64827;BME280;51265;53.972;12.286;2023-08-17T00:01:05;101510.56;;;16.19;100.00
64827;BME280;51265;53.972;12.286;2023-08-17T00:03:31;101521.53;;;16.24;100.00
64827;BME280;51265;53.972;12.286;2023-08-17T00:05:57;101525.34;;;16.28;100.00
64827;BME280;51265;53.972;12.286;2023-08-17T00:08:23;101517.19;;;16.32;100.00
64827;BME280;51265;53.972;12.286;2023-08-17T00:10:50;101523.44;;;16.37;100.00
64827;BME280;51265;53.972;12.286;2023-08-17T00:13:16;101525.06;;;16.38;100.00
64827;BME280;51265;53.972;12.286;2023-08-17T00:15:42;101524.72;;;16.31;100.00
64827;BME280;51265;53.972;12.286;2023-08-17T00:18:11;101520.19;;;16.22;100.00
64827;BME280;51265;53.972;12.286;2023-08-17T00:20:38;101512.31;;;16.15;100.00
64827;BME280;51265;53.972;12.286;2023-08-17T00:23:04;101521.47;;;16.15;100.00
64827;BME280;51265;53.972;12.286;2023-08-17T00:25:30;101517.38;;;16.13;100.00
64827;BME280;51265;53.972;12.286;2023-08-17T00:27:56;101519.66;;;16.11;100.00
64827;BME280;51265;53.972;12.286;2023-08-17T00:30:22;101519.66;;;16.11;100.00
64827;BME280;51265;53.972;12.286;2023-08-17T00:32:48;101517.88;;;16.15;100.00
64827;BME280;51265;53.972;12.286;2023-08-17T00:35:15;101521.53;;;16.24;100.00
64827;BME280;51265;53.972;12.286;2023-08-17T00:37:41;101517.00;;;16.28;100.00
64827;BME280;51265;53.972;12.286;2023-08-17T00:40:08;101505.13;;;16.36;100.00
64827;BME280;51265;53.972;12.286;2023-08-17T00:42:44;101499.28;;;16.47;100.00
64827;BME280;51265;53.972;12.286;2023-08-17T00:45:17;101491.47;;;16.49;100.00
64827;BME280;51265;53.972;12.286;2023-08-17T00:47:43;101496.22;;;16.48;100.00
64827;BME280;51265;53.972;12.286;2023-08-17T00:50:10;101497.66;;;16.46;100.00
64827;BME280;51265;53.972;12.286;2023-08-17T00:52:37;101505.13;;;16.36;100.00
64827;BME280;51265;53.972;12.286;2023-08-17T00:55:11;101496.09;;;16.31;100.00
64827;BME280;51265;53.972;12.286;2023-08-17T00:57:37;101505.75;;;16.33;100.00
64827;BME280;51265;53.972;12.286;2023-08-17T01:00:05;101496.41;;;16.29;100.00
64827;BME280;51265;53.972;12.286;2023-08-17T01:02:47;101503.09;;;16.28;100.00
64827;BME280;51265;53.972;12.286;2023-08-17T01:05:17;101503.22;;;16.23;100.00
64827;BME280;51265;53.972;12.286;2023-08-17T01:07:43;101493.69;;;16.15;100.00
64827;BME280;51265;53.972;12.286;2023-08-17T01:10:10;101496.91;;;16.09;100.00
64827;BME280;51265;53.972;12.286;2023-08-17T01:13:05;101492.47;;;16.08;100.00
64827;BME280;51265;53.972;12.286;2023-08-17T01:15:32;101488.69;;;16.04;100.00
64827;BME280;51265;53.972;12.286;2023-08-17T01:18:09;101489.31;;;16.01;100.00
64827;BME280;51265;53.972;12.286;2023-08-17T01:20:37;101484.06;;;15.99;100.00
64827;BME280;51265;53.972;12.286;2023-08-17T01:23:09;101488.81;;;15.99;100.00
64827;BME280;51265;53.972;12.286;2023-08-17T01:25:50;101485.84;;;15.95;100.00
64827;BME280;51265;53.972;12.286;2023-08-17T01:28:25;101491.94;;;15.83;100.00
64827;BME280;51265;53.972;12.286;2023-08-17T01:31:08;101484.06;;;15.77;100.00
64827;BME280;51265;53.972;12.286;2023-08-17T01:33:49;101476.16;;;15.70;100.00
64827;BME280;51265;53.972;12.286;2023-08-17T01:36:22;101474.69;;;15.59;100.00
64827;BME280;51265;53.972;12.286;2023-08-17T01:38:51;101468.66;;;15.57;100.00
64827;BME280;51265;53.972;12.286;2023-08-17T01:41:20;101467.50;;;15.58;100.00
64827;BME280;51265;53.972;12.286;2023-08-17T01:43:48;101462.47;;;15.60;100.00
64827;BME280;51265;53.972;12.286;2023-08-17T01:46:33;101462.38;;;15.65;100.00
64827;BME280;51265;53.972;12.286;2023-08-17T01:48:59;101463.81;;;15.76;100.00
64827;BME280;51265;53.972;12.286;2023-08-17T01:51:25;101462.09;;;15.89;100.00
64827;BME280;51265;53.972;12.286;2023-08-17T01:53:52;101458.81;;;15.87;100.00
64827;BME280;51265;53.972;12.286;2023-08-17T01:56:39;101450.00;;;15.71;100.00
64827;BME280;51265;53.972;12.286;2023-08-17T01:59:06;101456.84;;;15.51;100.00
64827;BME280;51265;53.972;12.286;2023-08-17T02:01:32;101462.63;;;15.27;100.00
64827;BME280;51265;53.972;12.286;2023-08-17T02:03:58;101460.06;;;15.03;100.00
64827;BME280;51265;53.972;12.286;2023-08-17T02:06:28;101471.16;;;14.89;100.00
64827;BME280;51265;53.972;12.286;2023-08-17T02:08:59;101464.28;;;14.87;100.00
64827;BME280;51265;53.972;12.286;2023-08-17T02:11:25;101472.09;;;14.99;100.00
64827;BME280;51265;53.972;12.286;2023-08-17T02:13:55;101470.03;;;15.18;100.00
64827;BME280;51265;53.972;12.286;2023-08-17T02:16:24;101470.88;;;15.18;100.00
64827;BME280;51265;53.972;12.286;2023-08-17T02:18:50;101473.94;;;15.17;100.00
64827;BME280;51265;53.972;12.286;2023-08-17T02:21:17;101472.00;;;15.04;100.00
64827;BME280;51265;53.972;12.286;2023-08-17T02:24:03;101481.03;;;14.95;100.00
64827;BME280;51265;53.972;12.286;2023-08-17T02:26:30;101485.66;;;14.86;100.00
64827;BME280;51265;53.972;12.286;2023-08-17T02:29:10;101482.97;;;14.81;100.00
64827;BME280;51265;53.972;12.286;2023-08-17T02:31:51;101485.84;;;14.76;100.00
64827;BME280;51265;53.972;12.286;2023-08-17T02:34:17;101484.81;;;14.72;100.00
64827;BME280;51265;53.972;12.286;2023-08-17T02:36:44;101488.19;;;14.69;100.00
64827;BME280;51265;53.972;12.286;2023-08-17T02:39:24;101495.47;;;14.65;100.00
64827;BME280;51265;53.972;12.286;2023-08-17T02:42:22;101489.94;;;14.79;100.00
64827;BME280;51265;53.972;12.286;2023-08-17T02:44:48;101496.84;;;14.81;100.00
64827;BME280;51265;53.972;12.286;2023-08-17T02:47:14;101498.59;;;14.77;100.00
64827;BME280;51265;53.972;12.286;2023-08-17T02:49:40;101496.31;;;14.79;100.00
64827;BME280;51265;53.972;12.286;2023-08-17T02:52:07;101494.16;;;14.76;100.00
64827;BME280;51265;53.972;12.286;2023-08-17T02:54:33;101495.09;;;14.72;100.00
64827;BME280;51265;53.972;12.286;2023-08-17T02:56:59;101491.41;;;14.76;100.00
64827;BME280;51265;53.972;12.286;2023-08-17T02:59:25;101490.97;;;14.69;100.00
64827;BME280;51265;53.972;12.286;2023-08-17T03:02:06;101493.84;;;14.64;100.00
64827;BME280;51265;53.972;12.286;2023-08-17T03:04:35;101509.34;;;14.65;100.00
64827;BME280;51265;53.972;12.286;2023-08-17T03:07:01;101497.22;;;14.61;100.00
64827;BME280;51265;53.972;12.286;2023-08-17T03:09:27;101506.03;;;14.63;100.00
64827;BME280;51265;53.972;12.286;2023-08-17T03:11:54;101499.38;;;14.64;100.00
64827;BME280;51265;53.972;12.286;2023-08-17T03:14:20;101509.84;;;14.67;100.00
64827;BME280;51265;53.972;12.286;2023-08-17T03:16:46;101509.25;;;14.70;100.00
64827;BME280;51265;53.972;12.286;2023-08-17T03:19:12;101503.59;;;14.75;100.00
64827;BME280;51265;53.972;12.286;2023-08-17T03:21:42;101499.41;;;14.78;100.00
64827;BME280;51265;53.972;12.286;2023-08-17T03:24:08;101508.25;;;14.80;100.00
64827;BME280;51265;53.972;12.286;2023-08-17T03:26:55;101491.69;;;14.75;100.00
64827;BME280;51265;53.972;12.286;2023-08-17T03:29:25;101490.97;;;14.69;100.00
64827;BME280;51265;53.972;12.286;2023-08-17T03:31:52;101489.84;;;14.70;100.00
64827;BME280;51265;53.972;12.286;2023-08-17T03:34:18;101490.97;;;14.83;100.00
64827;BME280;51265;53.972;12.286;2023-08-17T03:36:45;101503.75;;;14.98;100.00
64827;BME280;51265;53.972;12.286;2023-08-17T03:39:11;101491.94;;;15.06;100.00
64827;BME280;51265;53.972;12.286;2023-08-17T03:41:37;101494.28;;;14.99;100.00
64827;BME280;51265;53.972;12.286;2023-08-17T03:44:05;101484.44;;;14.92;100.00
64827;BME280;51265;53.972;12.286;2023-08-17T03:46:32;101480.69;;;14.69;100.00
64827;BME280;51265;53.972;12.286;2023-08-17T03:48:58;101476.16;;;14.60;100.00
64827;BME280;51265;53.972;12.286;2023-08-17T03:51:25;101473.09;;;14.61;100.00
64827;BME280;51265;53.972;12.286;2023-08-17T03:53:51;101477.00;;;14.88;100.00
64827;BME280;51265;53.972;12.286;2023-08-17T03:56:19;101488.41;;;14.86;100.00
64827;BME280;51265;53.972;12.286;2023-08-17T03:58:45;101490.91;;;15.02;100.00
64827;BME280;51265;53.972;12.286;2023-08-17T04:01:11;101489.03;;;14.83;100.00
64827;BME280;51265;53.972;12.286;2023-08-17T04:03:47;101505.38;;;14.99;100.00
64827;BME280;51265;53.972;12.286;2023-08-17T04:06:13;101500.75;;;15.08;100.00
64827;BME280;51265;53.972;12.286;2023-08-17T04:08:39;101495.31;;;15.16;100.00
64827;BME280;51265;53.972;12.286;2023-08-17T04:11:06;101505.78;;;15.33;100.00
64827;BME280;51265;53.972;12.286;2023-08-17T04:13:32;101507.22;;;15.44;100.00
64827;BME280;51265;53.972;12.286;2023-08-17T04:15:58;101502.69;;;15.49;100.00
64827;BME280;51265;53.972;12.286;2023-08-17T04:18:24;101508.84;;;15.59;100.00
64827;BME280;51265;53.972;12.286;2023-08-17T04:20:51;101512.78;;;15.72;100.00
64827;BME280;51265;53.972;12.286;2023-08-17T04:23:18;101504.88;;;16.02;100.00
64827;BME280;51265;53.972;12.286;2023-08-17T04:25:46;101501.69;;;16.17;100.00
64827;BME280;51265;53.972;12.286;2023-08-17T04:28:13;101492.38;;;16.35;100.00
64827;BME280;51265;53.972;12.286;2023-08-17T04:30:40;101502.22;;;16.41;100.00
64827;BME280;51265;53.972;12.286;2023-08-17T04:33:07;101504.50;;;16.39;100.00
64827;BME280;51265;53.972;12.286;2023-08-17T04:35:33;101513.22;;;16.24;100.00
64827;BME280;51265;53.972;12.286;2023-08-17T04:38:01;101513.47;;;16.36;100.00
64827;BME280;51265;53.972;12.286;2023-08-17T04:40:27;101515.03;;;16.74;100.00
64827;BME280;51265;53.972;12.286;2023-08-17T04:42:56;101508.44;;;17.01;100.00
64827;BME280;51265;53.972;12.286;2023-08-17T04:45:23;101513.44;;;17.21;100.00
64827;BME280;51265;53.972;12.286;2023-08-17T04:47:49;101497.63;;;17.39;100.00
64827;BME280;51265;53.972;12.286;2023-08-17T04:50:16;101509.06;;;17.37;100.00
64827;BME280;51265;53.972;12.286;2023-08-17T04:52:43;101503.22;;;17.56;100.00
64827;BME280;51265;53.972;12.286;2023-08-17T04:55:10;101502.91;;;17.66;100.00
64827;BME280;51265;53.972;12.286;2023-08-17T04:57:36;101502.66;;;17.77;100.00
64827;BME280;51265;53.972;12.286;2023-08-17T05:00:03;101512.00;;;17.98;100.00
64827;BME280;51265;53.972;12.286;2023-08-17T05:02:30;101505.25;;;18.16;100.00
64827;BME280;51265;53.972;12.286;2023-08-17T05:04:57;101506.06;;;18.17;100.00
64827;BME280;51265;53.972;12.286;2023-08-17T05:07:23;101497.72;;;18.17;100.00
64827;BME280;51265;53.972;12.286;2023-08-17T05:09:52;101496.72;;;18.30;100.00
64827;BME280;51265;53.972;12.286;2023-08-17T05:12:19;101490.16;;;18.44;100.00
64827;BME280;51265;53.972;12.286;2023-08-17T05:14:46;101485.84;;;18.55;100.00
64827;BME280;51265;53.972;12.286;2023-08-17T05:17:12;101478.78;;;18.57;100.00
64827;BME280;51265;53.972;12.286;2023-08-17T05:19:38;101470.59;;;18.61;100.00
64827;BME280;51265;53.972;12.286;2023-08-17T05:22:10;101462.69;;;18.63;100.00
64827;BME280;51265;53.972;12.286;2023-08-17T05:24:37;101457.44;;;18.61;100.00
64827;BME280;51265;53.972;12.286;2023-08-17T05:27:04;101452.69;;;18.62;100.00
64827;BME280;51265;53.972;12.286;2023-08-17T05:29:30;101448.91;;;18.58;99.10
64827;BME280;51265;53.972;12.286;2023-08-17T05:31:58;101455.47;;;18.62;98.59
64827;BME280;51265;53.972;12.286;2023-08-17T05:34:24;101444.97;;;18.59;98.06
64827;BME280;51265;53.972;12.286;2023-08-17T05:36:50;101444.66;;;18.52;97.04
64827;BME280;51265;53.972;12.286;2023-08-17T05:39:17;101442.38;;;18.54;96.75
64827;BME280;51265;53.972;12.286;2023-08-17T05:41:44;101432.84;;;18.55;96.28
64827;BME280;51265;53.972;12.286;2023-08-17T05:44:10;101443.16;;;18.63;96.30
64827;BME280;51265;53.972;12.286;2023-08-17T05:46:36;101431.81;;;18.68;96.29
64827;BME280;51265;53.972;12.286;2023-08-17T05:49:04;101424.59;;;18.67;96.25
64827;BME280;51265;53.972;12.286;2023-08-17T05:51:30;101434.13;;;18.66;96.48
64827;BME280;51265;53.972;12.286;2023-08-17T05:53:57;101425.75;;;18.66;96.41
64827;BME280;51265;53.972;12.286;2023-08-17T05:56:23;101434.13;;;18.66;96.48
64827;BME280;51265;53.972;12.286;2023-08-17T05:58:49;101434.13;;;18.66;96.29
64827;BME280;51265;53.972;12.286;2023-08-17T06:01:15;101425.09;;;18.69;96.22
64827;BME280;51265;53.972;12.286;2023-08-17T06:03:42;101424.94;;;18.74;96.13
64827;BME280;51265;53.972;12.286;2023-08-17T06:06:09;101430.50;;;18.74;96.10
64827;BME280;51265;53.972;12.286;2023-08-17T06:08:35;101416.56;;;18.74;96.00
64827;BME280;51265;53.972;12.286;2023-08-17T06:11:01;101418.00;;;18.80;95.57
64827;BME280;51265;53.972;12.286;2023-08-17T06:13:28;101428.50;;;18.83;95.19
64827;BME280;51265;53.972;12.286;2023-08-17T06:15:56;101418.97;;;18.84;94.63
64827;BME280;51265;53.972;12.286;2023-08-17T06:18:22;101420.44;;;18.90;94.45
64827;BME280;51265;53.972;12.286;2023-08-17T06:20:48;101424.44;;;19.02;94.12
64827;BME280;51265;53.972;12.286;2023-08-17T06:23:18;101424.09;;;19.12;93.48
64827;BME280;51265;53.972;12.286;2023-08-17T06:25:45;101416.31;;;19.17;92.88
64827;BME280;51265;53.972;12.286;2023-08-17T06:28:11;101419.06;;;19.26;91.52
64827;BME280;51265;53.972;12.286;2023-08-17T06:30:37;101415.38;;;19.34;90.36
64827;BME280;51265;53.972;12.286;2023-08-17T06:33:04;101416.50;;;19.42;89.57
64827;BME280;51265;53.972;12.286;2023-08-17T06:35:30;101411.72;;;19.42;88.66
64827;BME280;51265;53.972;12.286;2023-08-17T06:37:57;101413.34;;;19.44;88.64
64827;BME280;51265;53.972;12.286;2023-08-17T06:40:24;101413.63;;;19.51;88.75
64827;BME280;51265;53.972;12.286;2023-08-17T06:42:50;101419.31;;;19.63;88.64
64827;BME280;51265;53.972;12.286;2023-08-17T06:45:18;101416.81;;;19.70;88.38
64827;BME280;51265;53.972;12.286;2023-08-17T06:47:45;101407.03;;;19.76;87.99
64827;BME280;51265;53.972;12.286;2023-08-17T06:50:11;101408.47;;;19.82;87.77
64827;BME280;51265;53.972;12.286;2023-08-17T06:52:38;101412.41;;;19.81;86.94
64827;BME280;51265;53.972;12.286;2023-08-17T06:55:05;101410.78;;;19.80;86.60
64827;BME280;51265;53.972;12.286;2023-08-17T06:57:31;101405.06;;;19.77;86.61
64827;BME280;51265;53.972;12.286;2023-08-17T06:59:57;101401.53;;;19.68;86.48
64827;BME280;51265;53.972;12.286;2023-08-17T07:02:23;101422.13;;;19.63;86.73
64827;BME280;51265;53.972;12.286;2023-08-17T07:04:49;101419.69;;;19.61;87.04
64827;BME280;51265;53.972;12.286;2023-08-17T07:07:16;101421.00;;;19.55;86.97
64827;BME280;51265;53.972;12.286;2023-08-17T07:09:42;101426.66;;;19.47;87.44
64827;BME280;51265;53.972;12.286;2023-08-17T07:12:08;101435.84;;;19.47;87.92
64827;BME280;51265;53.972;12.286;2023-08-17T07:14:34;101440.16;;;19.45;88.63
64827;BME280;51265;53.972;12.286;2023-08-17T07:17:00;101443.31;;;19.34;88.23
64827;BME280;51265;53.972;12.286;2023-08-17T07:19:27;101442.03;;;19.32;89.12
64827;BME280;51265;53.972;12.286;2023-08-17T07:21:53;101457.28;;;19.05;90.17
64827;BME280;51265;53.972;12.286;2023-08-17T07:24:19;101462.28;;;18.90;91.80
64827;BME280;51265;53.972;12.286;2023-08-17T07:26:45;101479.63;;;19.05;92.79
64827;BME280;51265;53.972;12.286;2023-08-17T07:29:11;101476.63;;;19.10;93.22
64827;BME280;51265;53.972;12.286;2023-08-17T07:31:38;101478.56;;;19.18;93.11
64827;BME280;51265;53.972;12.286;2023-08-17T07:34:05;101484.25;;;19.30;92.91
64827;BME280;51265;53.972;12.286;2023-08-17T07:36:32;101496.75;;;19.33;92.37
64827;BME280;51265;53.972;12.286;2023-08-17T07:38:59;101497.41;;;19.30;92.48
64827;BME280;51265;53.972;12.286;2023-08-17T07:41:26;101502.56;;;19.19;92.75
64827;BME280;51265;53.972;12.286;2023-08-17T07:43:52;101513.78;;;19.02;93.19
64827;BME280;51265;53.972;12.286;2023-08-17T07:46:18;101513.19;;;18.87;94.29
64827;BME280;51265;53.972;12.286;2023-08-17T07:48:44;101523.41;;;18.75;95.51
64827;BME280;51265;53.972;12.286;2023-08-17T07:51:10;101528.97;;;18.66;96.58
64827;BME280;51265;53.972;12.286;2023-08-17T07:53:37;101528.69;;;18.41;97.38
64827;BME280;51265;53.972;12.286;2023-08-17T07:56:03;101522.78;;;18.26;98.32
64827;BME280;51265;53.972;12.286;2023-08-17T07:58:29;101528.38;;;18.17;99.80
64827;BME280;51265;53.972;12.286;2023-08-17T08:00:55;101524.78;;;18.08;100.00
64827;BME280;51265;53.972;12.286;2023-08-17T08:03:22;101534.94;;;18.04;100.00
64827;BME280;51265;53.972;12.286;2023-08-17T08:05:48;101546.44;;;17.94;100.00
64827;BME280;51265;53.972;12.286;2023-08-17T08:08:14;101546.56;;;17.88;100.00
64827;BME280;51265;53.972;12.286;2023-08-17T08:10:40;101548.69;;;17.91;100.00
64827;BME280;51265;53.972;12.286;2023-08-17T08:13:07;101545.56;;;17.93;100.00
64827;BME280;51265;53.972;12.286;2023-08-17T08:15:33;101540.19;;;17.97;100.00
64827;BME280;51265;53.972;12.286;2023-08-17T08:17:59;101540.53;;;18.04;100.00
64827;BME280;51265;53.972;12.286;2023-08-17T08:20:26;101539.88;;;18.07;100.00
64827;BME280;51265;53.972;12.286;2023-08-17T08:22:52;101542.66;;;18.07;100.00
64827;BME280;51265;53.972;12.286;2023-08-17T08:25:18;101540.34;;;18.09;100.00
64827;BME280;51265;53.972;12.286;2023-08-17T08:27:44;101525.59;;;18.17;100.00
64827;BME280;51265;53.972;12.286;2023-08-17T08:30:10;101519.84;;;18.05;100.00
64827;BME280;51265;53.972;12.286;2023-08-17T08:32:37;101525.59;;;17.91;100.00
64827;BME280;51265;53.972;12.286;2023-08-17T08:35:03;101533.44;;;17.80;100.00
64827;BME280;51265;53.972;12.286;2023-08-17T08:37:30;101534.19;;;17.55;100.00
64827;BME280;51265;53.972;12.286;2023-08-17T08:39:56;101527.94;;;17.40;100.00
64827;BME280;51265;53.972;12.286;2023-08-17T08:42:23;101529.50;;;17.24;100.00
64827;BME280;51265;53.972;12.286;2023-08-17T08:44:49;101529.44;;;17.07;100.00
64827;BME280;51265;53.972;12.286;2023-08-17T08:47:18;101535.16;;;17.02;100.00
64827;BME280;51265;53.972;12.286;2023-08-17T08:49:50;101519.75;;;17.04;100.00
64827;BME280;51265;53.972;12.286;2023-08-17T08:52:23;101524.31;;;17.00;100.00
64827;BME280;51265;53.972;12.286;2023-08-17T08:54:50;101509.75;;;16.95;100.00
64827;BME280;51265;53.972;12.286;2023-08-17T08:57:17;101502.81;;;16.83;100.00
64827;BME280;51265;53.972;12.286;2023-08-17T08:59:45;101499.03;;;16.79;100.00
64827;BME280;51265;53.972;12.286;2023-08-17T09:02:16;101494.94;;;16.77;100.00
64827;BME280;51265;53.972;12.286;2023-08-17T09:04:43;101489.66;;;16.75;100.00
64827;BME280;51265;53.972;12.286;2023-08-17T09:07:12;101496.91;;;16.76;100.00
64827;BME280;51265;53.972;12.286;2023-08-17T09:09:38;101487.75;;;16.84;100.00
64827;BME280;51265;53.972;12.286;2023-08-17T09:12:08;101497.16;;;16.97;100.00
64827;BME280;51265;53.972;12.286;2023-08-17T09:14:36;101497.03;;;17.11;100.00
64827;BME280;51265;53.972;12.286;2023-08-17T09:17:03;101502.34;;;17.30;100.00
64827;BME280;51265;53.972;12.286;2023-08-17T09:19:32;101500.44;;;17.56;100.00
64827;BME280;51265;53.972;12.286;2023-08-17T09:22:00;101505.75;;;17.84;100.00
64827;BME280;51265;53.972;12.286;2023-08-17T09:24:36;101508.69;;;18.05;100.00
64827;BME280;51265;53.972;12.286;2023-08-17T09:27:03;101517.91;;;18.23;100.00
64827;BME280;51265;53.972;12.286;2023-08-17T09:29:32;101511.63;;;18.34;100.00
64827;BME280;51265;53.972;12.286;2023-08-17T09:32:09;101510.16;;;18.46;100.00
64827;BME280;51265;53.972;12.286;2023-08-17T09:34:36;101514.25;;;18.57;100.00
64827;BME280;51265;53.972;12.286;2023-08-17T09:37:05;101515.50;;;18.68;100.00
64827;BME280;51265;53.972;12.286;2023-08-17T09:39:31;101516.81;;;18.79;100.00
64827;BME280;51265;53.972;12.286;2023-08-17T09:42:02;101518.41;;;18.98;100.00
64827;BME280;51265;53.972;12.286;2023-08-17T09:44:28;101510.13;;;19.10;100.00
64827;BME280;51265;53.972;12.286;2023-08-17T09:46:55;101505.41;;;19.10;100.00
64827;BME280;51265;53.972;12.286;2023-08-17T09:49:25;101495.88;;;19.11;100.00
64827;BME280;51265;53.972;12.286;2023-08-17T09:51:51;101486.47;;;19.16;100.00
64827;BME280;51265;53.972;12.286;2023-08-17T09:54:22;101486.78;;;19.23;100.00
64827;BME280;51265;53.972;12.286;2023-08-17T09:56:58;101487.03;;;19.30;100.00
64827;BME280;51265;53.972;12.286;2023-08-17T09:59:24;101479.44;;;19.39;100.00
64827;BME280;51265;53.972;12.286;2023-08-17T10:01:51;101482.88;;;19.45;100.00
64827;BME280;51265;53.972;12.286;2023-08-17T10:04:20;101479.72;;;19.47;100.00
64827;BME280;51265;53.972;12.286;2023-08-17T10:06:51;101473.94;;;19.52;100.00
64827;BME280;51265;53.972;12.286;2023-08-17T10:09:24;101469.50;;;19.51;100.00
64827;BME280;51265;53.972;12.286;2023-08-17T10:11:54;101459.84;;;19.48;100.00
64827;BME280;51265;53.972;12.286;2023-08-17T10:14:28;101465.28;;;19.45;100.00
64827;BME280;51265;53.972;12.286;2023-08-17T10:16:57;101454.78;;;19.41;100.00
64827;BME280;51265;53.972;12.286;2023-08-17T10:19:55;101447.56;;;19.40;100.00
64827;BME280;51265;53.972;12.286;2023-08-17T10:24:57;101451.91;;;19.29;100.00
64827;BME280;51265;53.972;12.286;2023-08-17T10:27:26;101454.50;;;19.34;100.00
64827;BME280;51265;53.972;12.286;2023-08-17T10:29:52;101455.31;;;19.56;100.00
64827;BME280;51265;53.972;12.286;2023-08-17T10:32:21;101467.47;;;19.60;100.00
64827;BME280;51265;53.972;12.286;2023-08-17T10:34:50;101471.31;;;19.76;100.00
64827;BME280;51265;53.972;12.286;2023-08-17T10:37:18;101478.66;;;20.02;100.00
64827;BME280;51265;53.972;12.286;2023-08-17T10:39:46;101471.28;;;20.18;100.00
64827;BME280;51265;53.972;12.286;2023-08-17T10:42:13;101469.66;;;20.17;100.00
64827;BME280;51265;53.972;12.286;2023-08-17T10:50:06;101424.22;;;20.53;99.65
64827;BME280;51265;53.972;12.286;2023-08-17T10:52:34;101415.72;;;20.50;98.57
64827;BME280;51265;53.972;12.286;2023-08-17T10:55:04;101418.50;;;20.50;98.17
64827;BME280;51265;53.972;12.286;2023-08-17T10:57:38;101409.56;;;20.35;98.76
64827;BME280;51265;53.972;12.286;2023-08-17T11:00:23;101404.88;;;20.15;99.31
64827;BME280;51265;53.972;12.286;2023-08-17T11:02:53;101402.09;;;20.15;99.57
64827;BME280;51265;53.972;12.286;2023-08-17T11:05:42;101400.91;;;20.16;99.09
64827;BME280;51265;53.972;12.286;2023-08-17T11:08:11;101401.41;;;20.30;98.15
64827;BME280;51265;53.972;12.286;2023-08-17T11:10:39;101395.38;;;20.40;97.11
64827;BME280;51265;53.972;12.286;2023-08-17T11:13:06;101391.69;;;20.49;95.25
64827;BME280;51265;53.972;12.286;2023-08-17T11:15:41;101385.34;;;20.39;95.20
64827;BME280;51265;53.972;12.286;2023-08-17T11:18:09;101390.88;;;20.60;95.09
64827;BME280;51265;53.972;12.286;2023-08-17T11:20:36;101397.53;;;20.80;94.43
64827;BME280;51265;53.972;12.286;2023-08-17T11:23:04;101392.63;;;21.02;92.46
64827;BME280;51265;53.972;12.286;2023-08-17T11:25:31;101386.78;;;21.19;90.63
64827;BME280;51265;53.972;12.286;2023-08-17T11:27:59;101382.84;;;21.32;89.17
64827;BME280;51265;53.972;12.286;2023-08-17T11:30:26;101376.28;;;21.41;88.17
64827;BME280;51265;53.972;12.286;2023-08-17T11:32:55;101367.50;;;21.42;87.34
64827;BME280;51265;53.972;12.286;2023-08-17T11:35:21;101368.53;;;21.50;86.51
64827;BME280;51265;53.972;12.286;2023-08-17T11:37:48;101367.91;;;21.56;85.93
64827;BME280;51265;53.972;12.286;2023-08-17T11:40:15;101356.09;;;21.63;85.21
64827;BME280;51265;53.972;12.286;2023-08-17T11:42:43;101348.00;;;21.74;83.96
64827;BME280;51265;53.972;12.286;2023-08-17T11:45:09;101337.44;;;21.83;82.97
64827;BME280;51265;53.972;12.286;2023-08-17T11:47:39;101328.88;;;21.92;82.02
64827;BME280;51265;53.972;12.286;2023-08-17T11:50:08;101326.41;;;21.90;81.40
64827;BME280;51265;53.972;12.286;2023-08-17T11:52:35;101322.22;;;22.12;81.11
64827;BME280;51265;53.972;12.286;2023-08-17T11:55:07;101306.28;;;22.48;79.73
64827;BME280;51265;53.972;12.286;2023-08-17T11:57:36;101306.69;;;22.81;78.08
64827;BME280;51265;53.972;12.286;2023-08-17T12:00:05;101294.72;;;23.00;76.62
64827;BME280;51265;53.972;12.286;2023-08-17T12:02:38;101281.38;;;23.13;75.24
64827;BME280;51265;53.972;12.286;2023-08-17T12:05:08;101272.94;;;23.13;74.60
64827;BME280;51265;53.972;12.286;2023-08-17T12:07:35;101254.72;;;23.07;73.48
64827;BME280;51265;53.972;12.286;2023-08-17T12:10:05;101242.97;;;23.01;72.53
64827;BME280;51265;53.972;12.286;2023-08-17T12:12:36;101235.84;;;22.88;71.94
64827;BME280;51265;53.972;12.286;2023-08-17T12:15:03;101221.13;;;22.75;71.49
64827;BME280;51265;53.972;12.286;2023-08-17T12:17:29;101226.19;;;22.70;71.04
64827;BME280;51265;53.972;12.286;2023-08-17T12:19:55;101218.09;;;22.84;70.39
64827;BME280;51265;53.972;12.286;2023-08-17T12:22:25;101231.16;;;22.92;70.28
64827;BME280;51265;53.972;12.286;2023-08-17T12:24:52;101229.16;;;23.12;70.32
64827;BME280;51265;53.972;12.286;2023-08-17T12:27:18;101214.78;;;23.36;69.38
64827;BME280;51265;53.972;12.286;2023-08-17T12:29:48;101196.13;;;23.48;68.50
64827;BME280;51265;53.972;12.286;2023-08-17T12:32:16;101204.81;;;23.39;68.37
64827;BME280;51265;53.972;12.286;2023-08-17T12:34:42;101205.28;;;23.64;68.47
64827;BME280;51265;53.972;12.286;2023-08-17T12:37:09;101194.13;;;23.68;67.37
64827;BME280;51265;53.972;12.286;2023-08-17T12:39:37;101184.28;;;23.58;67.26
64827;BME280;51265;53.972;12.286;2023-08-17T12:42:06;101181.66;;;23.46;67.06
64827;BME280;51265;53.972;12.286;2023-08-17T12:44:33;101190.56;;;23.09;67.99
64827;BME280;51265;53.972;12.286;2023-08-17T12:47:01;101201.75;;;22.90;68.65